Florida, Colorado
Current Conditions -  °F | °C
As of 7:52 AM on Monday 24 Nov 2014 (Local Time) from KALS Reporting Station
Clear Clear  
Wind Chill:   Ceiling: Unl
Heat Index: 10°   Visibility: 10mi
Dew Point:   Wind: 5mph
Humidity: 67%   Direction: 260°W
Pressure: 30.06"   Gusts: NA
Location:  37.1816°N, 106.262°W
Report Text: KALS 241452Z AUTO 26004KT 10SM CLR M12/M17 A3006 RMK AO2 SLP232 T11221172 53012
Loading
Personal Weather Stations






























Interactive Weather Map New forecast layout! Learn more

10-Day Weather Forecast

Advertisements
Track Severe Weather on mobile